Latest Weather Observations for Curtin

IDW60801

Issued at 5:32 pm WST Sunday 26 April 2015 (issued every 30 minutes, with the page automatically refreshed every 10 minutes)

About weather observations | Map of weather stations | Latest weather observations for WA | Other Formats
Station Details ID: 003080 Name: CURTIN AERO Lat: -17.58 Lon: 123.83 Height: 77.5 m
Data from the previous 72 hours. | See also: Recent months at Curtin
Date/Time
WST
Temp
°C
App
Temp
°C
Dew
Point
Rel
Hum
%
Delta-T
°C
Wind Press
QNH
hPa
Press
MSL
hPa
Rain
since 9 am
mm
Dir
 
Spd
km/h
Gust
km/h
Spd
kts
Gust
kts
26/05:30pm 29.8 28.0 9.3 28 11.5 SE 9 11 5 6 1012.3 1011.8 0.0
26/05:00pm 31.9 29.7 9.4 25 12.8 SE 11 15 6 8 1012.0 1011.5 0.0
26/04:30pm 32.9 31.2 9.7 24 13.3 ESE 9 13 5 7 1011.6 1011.1 0.0
26/04:00pm 33.8 31.3 8.4 21 14.3 ESE 11 19 6 10 1011.3 1010.8 0.0
26/03:30pm 34.1 31.3 8.7 21 14.4 SE 13 19 7 10 1011.1 1010.6 0.0
26/03:00pm 34.5 31.6 8.3 20 14.8 SE 13 19 7 10 1011.1 1010.6 0.0
26/02:30pm 34.7 31.9 8.4 20 14.9 ESE 13 17 7 9 1011.1 1010.6 0.0
26/02:00pm 34.8 32.2 7.8 19 15.1 ENE 11 17 6 9 1011.0 1010.5 0.0
26/01:30pm 34.4 31.4 7.5 19 15.0 E 13 19 7 10 1011.2 1010.7 0.0
26/01:00pm 34.4 31.4 7.5 19 15.0 ENE 13 20 7 11 1011.4 1010.9 0.0
26/12:30pm 34.0 30.9 7.1 19 14.8 E 13 24 7 13 1011.8 1011.3 0.0
26/12:00pm 33.4 30.1 8.1 21 14.1 E 15 26 8 14 1012.2 1011.7 0.0
26/11:30am 33.0 29.1 8.5 22 13.8 E 19 26 10 14 1012.5 1012.0 0.0
26/11:00am 32.5 28.7 7.4 21 13.8 E 17 26 9 14 1013.0 1012.5 0.0
26/10:30am 31.6 27.3 7.9 23 13.1 E 20 32 11 17 1013.4 1012.9 0.0
26/10:00am 30.7 26.7 8.4 25 12.4 E 19 26 10 14 1013.7 1013.2 0.0
26/09:30am 29.0 24.8 7.6 26 11.6 ESE 19 30 10 16 1014.0 1013.5 0.0
26/09:00am 27.4 23.8 8.3 30 10.4 ESE 17 24 9 13 1014.2 1013.7 0.0
26/08:30am 25.8 21.3 6.9 30 9.9 ESE 20 33 11 18 1013.9 1013.4 0.0
26/08:00am 25.1 20.7 7.3 32 9.4 ESE 20 28 11 15 1013.5 1013.0 0.0
26/07:30am 24.2 19.6 6.5 32 9.2 ESE 20 32 11 17 1013.3 1012.8 0.0
26/07:00am 24.1 19.6 5.9 31 9.3 ESE 19 30 10 16 1013.0 1012.5 0.0
26/06:30am 24.1 19.6 5.9 31 9.3 ESE 19 30 10 16 1012.8 1012.3 0.0
26/06:00am 24.3 19.7 5.6 30 9.5 ESE 19 30 10 16 1012.4 1011.9 0.0
26/05:30am 24.6 19.8 5.4 29 9.8 ESE 20 28 11 15 1012.1 1011.6 0.0
26/05:00am 25.2 20.1 5.9 29 9.9 SE 22 33 12 18 1011.8 1011.3 0.0
26/04:30am 25.6 21.0 6.3 29 10.0 ESE 20 30 11 16 1011.6 1011.1 0.0
26/04:00am 26.1 21.0 6.2 28 10.4 SE 22 35 12 19 1011.4 1010.9 0.0
26/03:30am 26.7 21.3 6.2 27 10.7 SE 24 39 13 21 1011.5 1011.0 0.0
26/03:00am 26.7 22.0 6.2 27 10.7 SE 20 35 11 19 1011.4 1010.9 0.0
26/02:30am 26.9 21.5 6.3 27 10.8 SE 24 33 13 18 1011.4 1010.9 0.0
26/02:00am 26.9 22.5 7.4 29 10.4 SE 20 32 11 17 1011.7 1011.2 0.0
26/01:30am 27.1 22.9 7.5 29 10.5 SE 19 28 10 15 1011.8 1011.3 0.0
26/01:00am 27.4 23.1 7.8 29 10.6 SE 20 28 11 15 1011.9 1011.4 0.0
26/12:30am 27.7 23.7 8.1 29 10.6 SE 19 26 10 14 1012.0 1011.5 0.0
26/12:00am 27.7 23.5 7.5 28 10.9 SE 19 26 10 14 1012.0 1011.5 0.0
 
Date/Time
WST
Temp
°C
App
Temp
°C
Dew
Point
Rel
Hum
%
Delta-T
°C
Wind Press
QNH
hPa
Press
MSL
hPa
Rain
since 9 am
mm
Dir
 
Spd
km/h
Gust
km/h
Spd
kts
Gust
kts
25/11:30pm 27.9 24.3 8.2 29 10.7 SE 17 26 9 14 1012.3 1011.8 0.0
25/11:00pm 28.3 24.8 8.6 29 10.8 SSE 17 22 9 12 1012.4 1011.9 0.0
25/10:30pm 29.1 25.2 8.7 28 11.3 SSE 19 28 10 15 1012.4 1011.9 0.0
25/10:00pm 28.0 25.1 9.8 32 10.2 SSE 15 17 8 9 1012.5 1012.0 0.0
25/09:30pm 27.5 25.1 10.2 34 9.7 SSE 13 13 7 7 1012.6 1012.1 0.0
25/09:00pm 27.7 25.4 10.4 34 9.8 S 13 13 7 7 1012.8 1012.3 0.0
25/08:30pm 27.8 25.9 10.5 34 9.8 S 11 13 6 7 1012.9 1012.4 0.0
25/08:00pm 27.6 25.3 10.3 34 9.7 S 13 15 7 8 1012.7 1012.2 0.0
25/07:30pm 27.4 25.5 10.6 35 9.5 S 11 13 6 7 1012.4 1011.9 0.0
25/07:00pm 28.0 26.2 10.7 34 9.8 S 11 13 6 7 1012.1 1011.6 0.0
25/06:30pm 28.7 26.4 10.4 32 10.4 S 13 15 7 8 1011.7 1011.2 0.0
25/06:00pm 29.3 27.0 10.4 31 10.8 S 13 15 7 8 1011.2 1010.7 0.0
25/05:30pm 30.0 27.6 10.0 29 11.3 S 13 17 7 9 1010.9 1010.4 0.0
25/05:00pm 31.0 28.0 9.3 26 12.2 S 15 19 8 10 1010.8 1010.3 0.0
25/04:30pm 31.6 27.7 8.6 24 12.8 S 19 22 10 12 1010.4 1009.9 0.0
25/04:00pm 32.4 29.0 9.2 24 13.1 SSE 17 22 9 12 1010.1 1009.6 0.0
25/03:30pm 32.9 29.3 9.7 24 13.3 SSE 19 26 10 14 1009.9 1009.4 0.0
25/03:00pm 32.8 29.7 10.2 25 13.0 SSE 17 20 9 11 1009.7 1009.2 0.0
25/02:30pm 32.9 30.2 10.3 25 13.0 SE 15 22 8 12 1009.6 1009.1 0.0
25/02:00pm 32.8 29.7 10.2 25 13.0 SE 17 22 9 12 1009.7 1009.2 0.0
25/01:30pm 33.1 29.9 9.8 24 13.4 ESE 17 24 9 13 1009.8 1009.3 0.0
25/01:00pm 33.0 29.9 10.4 25 13.1 ESE 17 28 9 15 1010.1 1009.6 0.0
25/12:30pm 32.4 29.3 10.4 26 12.7 ESE 17 24 9 13 1010.4 1009.9 0.0
25/12:00pm 32.2 28.5 10.3 26 12.6 E 20 30 11 16 1010.6 1010.1 0.0
25/11:30am 32.3 28.3 10.4 26 12.6 ESE 22 32 12 17 1011.1 1010.6 0.0
25/11:00am 32.4 28.2 9.9 25 12.9 ESE 22 32 12 17 1011.6 1011.1 0.0
25/10:30am 31.2 27.5 9.4 26 12.3 ESE 19 28 10 15 1012.1 1011.6 0.0
25/10:00am 30.5 25.7 8.8 26 12.1 ESE 24 35 13 19 1012.5 1012.0 0.0
25/09:30am 29.5 25.8 10.1 30 11.0 ESE 20 28 11 15 1012.5 1012.0 0.0
25/09:00am 28.3 23.6 9.1 30 10.6 ESE 24 37 13 20 1012.6 1012.1 0.0
25/08:30am 28.1 24.2 9.4 31 10.4 ESE 20 33 11 18 1012.6 1012.1 0.0
25/08:00am 27.8 24.1 9.6 32 10.1 ESE 19 30 10 16 1012.3 1011.8 0.0
25/07:30am 27.9 23.8 10.1 33 10.0 SE 22 32 12 17 1012.0 1011.5 0.0
25/07:00am 26.5 22.8 9.4 34 9.4 SE 19 26 10 14 1011.9 1011.4 0.0
25/06:30am 26.3 22.9 9.2 34 9.4 SE 17 24 9 13 1011.6 1011.1 0.0
25/06:00am 26.3 22.9 9.2 34 9.4 SE 17 24 9 13 1011.2 1010.7 0.0
25/05:30am 26.0 23.0 9.4 35 9.1 SE 15 20 8 11 1010.9 1010.4 0.0
25/05:00am 25.6 23.3 10.6 39 8.4 SE 13 17 7 9 1010.6 1010.1 0.0
25/04:30am 26.3 23.8 11.2 38 8.6 SE 15 20 8 11 1010.5 1010.0 0.0
25/04:00am 26.2 23.7 11.2 39 8.5 SE 15 20 8 11 1010.3 1009.8 0.0
25/03:30am 26.5 24.6 11.8 40 8.4 SE 13 17 7 9 1010.3 1009.8 0.0
25/03:00am 27.1 25.0 11.2 37 9.1 ESE 13 17 7 9 1010.3 1009.8 0.0
25/02:30am 27.3 24.8 10.9 36 9.3 SE 15 20 8 11 1010.5 1010.0 0.0
25/02:00am 27.7 24.8 10.9 35 9.6 SE 17 24 9 13 1010.6 1010.1 0.0
25/01:30am 27.9 24.4 10.1 33 10.0 SE 19 28 10 15 1010.7 1010.2 0.0
25/01:00am 28.0 24.5 10.2 33 10.0 SE 19 28 10 15 1010.7 1010.2 0.0
25/12:30am 28.1 24.4 10.3 33 10.1 SE 20 28 11 15 1010.9 1010.4 0.0
25/12:00am 28.5 25.0 10.2 32 10.3 SE 19 26 10 14 1011.1 1010.6 0.0
 
Date/Time
WST
Temp
°C
App
Temp
°C
Dew
Point
Rel
Hum
%
Delta-T
°C
Wind Press
QNH
hPa
Press
MSL
hPa
Rain
since 9 am
mm
Dir
 
Spd
km/h
Gust
km/h
Spd
kts
Gust
kts
24/11:30pm 28.6 24.9 10.3 32 10.4 SE 20 32 11 17 1011.1 1010.6 0.0
24/11:00pm 28.7 25.1 10.4 32 10.4 SE 20 30 11 16 1011.2 1010.7 0.0
24/10:30pm 28.9 25.3 10.6 32 10.4 SE 20 32 11 17 1011.1 1010.6 0.0
24/10:00pm 28.9 25.4 11.0 33 10.3 SSE 20 28 11 15 1011.2 1010.7 0.0
24/09:30pm 29.0 26.1 11.1 33 10.3 SSE 17 22 9 12 1011.5 1011.0 0.0
24/09:00pm 28.7 26.6 11.3 34 10.0 SSE 13 15 7 8 1011.4 1010.9 0.0
24/08:30pm 27.9 26.7 12.7 39 8.9 SSE 11 13 6 7 1011.4 1010.9 0.0
24/08:00pm 27.7 26.8 13.6 42 8.4 SSE 11 13 6 7 1011.3 1010.8 0.0
24/07:30pm 28.2 26.6 12.9 38 9.0 SSE 13 15 7 8 1011.2 1010.7 0.0
24/07:00pm 28.2 27.9 13.3 40 8.8 SSE 7 9 4 5 1010.9 1010.4 0.0
24/06:30pm 29.0 28.4 12.4 36 9.7 SE 7 9 4 5 1010.5 1010.0 0.0
24/06:00pm 29.7 28.8 12.6 35 10.1 SSE 9 13 5 7 1010.0 1009.5 0.0
24/05:30pm 30.2 29.1 12.1 32 10.6 SSE 9 13 5 7 1009.8 1009.3 0.0
24/05:00pm 30.9 29.5 12.3 32 11.0 SE 11 13 6 7 1009.7 1009.2 0.0
24/04:30pm 31.5 29.2 11.8 30 11.6 SE 15 20 8 11 1009.3 1008.8 0.0
24/04:00pm 31.9 29.7 13.2 32 11.3 SSE 17 24 9 13 1009.1 1008.6 0.0
24/03:30pm 32.4 29.3 12.1 29 12.0 SSE 20 26 11 14 1008.9 1008.4 0.0
24/03:00pm 33.1 30.1 12.1 27 12.5 SSE 19 24 10 13 1008.8 1008.3 0.0
24/02:30pm 33.0 30.6 12.6 29 12.2 SSE 17 26 9 14 1008.8 1008.3 0.0
24/02:00pm 33.5 32.7 14.0 30 12.0 ESE 11 17 6 9 1008.8 1008.3 0.0
24/01:30pm 33.7 32.4 13.7 30 12.2 SSE 13 19 7 10 1009.0 1008.5 0.0
24/01:00pm 34.0 32.2 14.5 31 12.1 SE 17 22 9 12 1009.1 1008.6 0.0
24/12:30pm 32.6 30.4 13.3 31 11.7 SE 17 26 9 14 1009.4 1008.9 0.0
24/12:00pm 32.4 30.9 13.1 31 11.6 ESE 13 17 7 9 1009.8 1009.3 0.0
24/11:30am 30.6 28.7 13.0 34 10.5 ESE 15 20 8 11 1010.5 1010.0 0.0
24/11:00am 30.6 28.3 13.0 34 10.5 ESE 17 26 9 14 1011.0 1010.5 0.0
24/10:30am 30.3 27.8 12.2 33 10.6 ESE 17 28 9 15 1011.3 1010.8 0.0
24/10:00am 29.8 26.2 11.8 33 10.5 ESE 22 30 12 16 1011.4 1010.9 0.0
24/09:30am 29.1 26.7 12.5 36 9.8 ESE 17 26 9 14 1011.5 1011.0 0.0
24/09:00am 28.2 25.9 11.7 36 9.5 ESE 15 22 8 12 1011.4 1010.9 0.0
24/08:30am 27.6 23.6 10.3 34 9.7 ESE 22 33 12 18 1011.1 1010.6 0.0
24/08:00am 28.4 24.1 10.6 33 10.1 SE 24 41 13 22 1010.9 1010.4 0.0
24/07:30am 26.4 21.9 10.1 36 9.1 SE 24 32 13 17 1010.9 1010.4 0.0
24/07:00am 26.0 23.1 11.0 39 8.5 SE 17 26 9 14 1010.7 1010.2 0.0
24/06:30am 25.2 22.7 11.0 41 8.0 SSE 15 22 8 12 1010.5 1010.0 0.0
24/06:00am 25.1 23.3 12.0 44 7.5 SSE 13 17 7 9 1010.3 1009.8 0.0
24/05:30am 25.2 23.7 13.1 47 7.1 SSE 13 15 7 8 1010.1 1009.6 0.0
24/05:00am 24.2 25.3 17.2 65 4.4 S 7 9 4 5 1010.0 1009.5 0.0
24/04:30am 24.1 24.9 17.4 66 4.2 SSE 9 11 5 6 1009.8 1009.3 0.0
24/04:00am 24.5 25.3 17.2 63 4.5 S 9 11 5 6 1009.7 1009.2 0.0
24/03:30am 24.8 25.6 17.3 63 4.7 S 9 11 5 6 1009.6 1009.1 0.0
24/03:00am 25.6 26.8 17.3 60 5.2 S 7 9 4 5 1009.7 1009.2 0.0
24/02:30am 25.8 27.7 18.5 64 4.7 S 6 7 3 4 1009.7 1009.2 0.0
24/02:00am 26.3 30.4 20.8 71 3.6 CALM 0 0 0 0 1009.7 1009.2 0.0
24/01:30am 26.7 28.2 18.0 59 5.5 S 7 9 4 5 1010.0 1009.5 0.0
24/01:00am 26.4 28.3 19.0 63 4.8 SSW 7 9 4 5 1010.1 1009.6 0.0
24/12:30am 26.3 30.6 21.1 73 3.4 CALM 0 0 0 0 1010.5 1010.0 0.0
24/12:00am 26.5 29.1 20.1 68 4.2 SSW 6 6 3 3 1010.7 1010.2 0.0
 
Date/Time
WST
Temp
°C
App
Temp
°C
Dew
Point
Rel
Hum
%
Delta-T
°C
Wind Press
QNH
hPa
Press
MSL
hPa
Rain
since 9 am
mm
Dir
 
Spd
km/h
Gust
km/h
Spd
kts
Gust
kts
23/11:30pm 27.1 29.8 20.2 66 4.5 SSW 6 7 3 4 1010.8 1010.3 0.0
23/11:00pm 27.2 29.7 20.3 66 4.5 S 7 9 4 5 1010.8 1010.3 0.0
23/10:30pm 27.4 29.6 19.5 62 5.1 SSW 7 7 4 4 1010.8 1010.3 0.0
23/10:00pm 27.5 29.7 19.6 62 5.1 W 7 9 4 5 1011.0 1010.5 0.0
23/09:30pm 27.2 29.9 20.3 66 4.5 SW 6 7 3 4 1010.9 1010.4 0.0
23/09:00pm 27.7 29.9 19.5 61 5.3 S 7 9 4 5 1011.0 1010.5 0.0
23/08:30pm 27.9 30.0 19.4 60 5.5 SSW 7 9 4 5 1011.2 1010.7 0.0
23/08:00pm 28.3 30.6 19.5 59 5.7 SW 6 6 3 3 1011.1 1010.6 0.0
23/07:30pm 28.5 30.5 19.1 56 6.1 W 7 13 4 7 1010.8 1010.3 0.0
23/07:00pm 28.5 30.6 19.4 57 5.9 W 7 9 4 5 1010.5 1010.0 0.0
23/06:30pm 28.4 30.4 19.1 57 6.0 WNW 7 7 4 4 1010.1 1009.6 0.0
23/06:00pm 29.1 31.3 19.1 54 6.5 WNW 6 7 3 4 1009.7 1009.2 0.0

Other Formats:

Comma delimited format used in spreadsheet applications
http://www.bom.gov.au/fwo/IDW60801/IDW60801.94204.axf

JavaScript Object Notation format (JSON) in row-major order
http://www.bom.gov.au/fwo/IDW60801/IDW60801.94204.json